sensor_id;sensor_type;location;lat;lon;timestamp;P1;durP1;ratioP1;P2;durP2;ratioP2
44728;SDS011;30457;53.590;9.922;2023-04-06T00:02:07;4.28;;;2.78;;
44728;SDS011;30457;53.590;9.922;2023-04-06T00:06:33;4.13;;;2.45;;
44728;SDS011;30457;53.590;9.922;2023-04-06T00:10:59;4.22;;;2.83;;
44728;SDS011;30457;53.590;9.922;2023-04-06T00:15:24;5.53;;;2.70;;
44728;SDS011;30457;53.590;9.922;2023-04-06T00:19:50;3.90;;;2.78;;
44728;SDS011;30457;53.590;9.922;2023-04-06T00:24:16;4.47;;;2.55;;
44728;SDS011;30457;53.590;9.922;2023-04-06T00:28:41;6.28;;;3.38;;
44728;SDS011;30457;53.590;9.922;2023-04-06T00:33:07;3.05;;;2.60;;
44728;SDS011;30457;53.590;9.922;2023-04-06T00:37:32;4.47;;;3.08;;
44728;SDS011;30457;53.590;9.922;2023-04-06T00:41:58;6.82;;;3.10;;
44728;SDS011;30457;53.590;9.922;2023-04-06T00:46:25;4.13;;;3.10;;
44728;SDS011;30457;53.590;9.922;2023-04-06T00:50:51;7.78;;;2.95;;
44728;SDS011;30457;53.590;9.922;2023-04-06T00:55:17;6.47;;;2.97;;
44728;SDS011;30457;53.590;9.922;2023-04-06T00:59:43;5.13;;;3.20;;
44728;SDS011;30457;53.590;9.922;2023-04-06T01:04:11;5.20;;;3.65;;
44728;SDS011;30457;53.590;9.922;2023-04-06T01:08:39;5.03;;;2.70;;
44728;SDS011;30457;53.590;9.922;2023-04-06T01:13:18;3.92;;;2.47;;
44728;SDS011;30457;53.590;9.922;2023-04-06T01:17:51;6.20;;;3.00;;
44728;SDS011;30457;53.590;9.922;2023-04-06T01:22:17;4.70;;;2.53;;
44728;SDS011;30457;53.590;9.922;2023-04-06T01:26:50;4.22;;;2.70;;
44728;SDS011;30457;53.590;9.922;2023-04-06T01:31:17;3.55;;;2.75;;
44728;SDS011;30457;53.590;9.922;2023-04-06T01:35:47;3.22;;;2.67;;
44728;SDS011;30457;53.590;9.922;2023-04-06T01:40:18;5.07;;;3.15;;
44728;SDS011;30457;53.590;9.922;2023-04-06T01:44:48;3.60;;;2.60;;
44728;SDS011;30457;53.590;9.922;2023-04-06T01:49:14;4.65;;;2.65;;
44728;SDS011;30457;53.590;9.922;2023-04-06T01:53:40;4.30;;;2.88;;
44728;SDS011;30457;53.590;9.922;2023-04-06T01:58:06;4.82;;;2.88;;
44728;SDS011;30457;53.590;9.922;2023-04-06T02:02:36;10.82;;;3.45;;
44728;SDS011;30457;53.590;9.922;2023-04-06T02:07:07;5.15;;;2.72;;
44728;SDS011;30457;53.590;9.922;2023-04-06T02:11:33;4.47;;;2.55;;
44728;SDS011;30457;53.590;9.922;2023-04-06T02:15:58;3.35;;;2.42;;
44728;SDS011;30457;53.590;9.922;2023-04-06T02:20:25;5.45;;;2.83;;
44728;SDS011;30457;53.590;9.922;2023-04-06T02:24:51;9.05;;;3.38;;
44728;SDS011;30457;53.590;9.922;2023-04-06T02:29:16;4.25;;;3.17;;
44728;SDS011;30457;53.590;9.922;2023-04-06T02:33:42;3.65;;;2.72;;
44728;SDS011;30457;53.590;9.922;2023-04-06T02:38:09;6.90;;;3.15;;
44728;SDS011;30457;53.590;9.922;2023-04-06T02:42:34;5.30;;;2.88;;
44728;SDS011;30457;53.590;9.922;2023-04-06T02:47:02;4.18;;;2.75;;
44728;SDS011;30457;53.590;9.922;2023-04-06T02:51:28;6.30;;;2.92;;
44728;SDS011;30457;53.590;9.922;2023-04-06T02:56:04;3.65;;;2.65;;
44728;SDS011;30457;53.590;9.922;2023-04-06T03:00:42;4.95;;;2.85;;
44728;SDS011;30457;53.590;9.922;2023-04-06T03:05:07;11.65;;;2.88;;
44728;SDS011;30457;53.590;9.922;2023-04-06T03:09:37;3.35;;;2.70;;
44728;SDS011;30457;53.590;9.922;2023-04-06T03:14:03;5.40;;;2.90;;
44728;SDS011;30457;53.590;9.922;2023-04-06T03:18:29;5.90;;;3.25;;
44728;SDS011;30457;53.590;9.922;2023-04-06T03:22:56;3.60;;;3.05;;
44728;SDS011;30457;53.590;9.922;2023-04-06T03:27:26;5.82;;;3.40;;
44728;SDS011;30457;53.590;9.922;2023-04-06T03:31:52;5.85;;;2.97;;
44728;SDS011;30457;53.590;9.922;2023-04-06T03:36:28;3.63;;;2.90;;
44728;SDS011;30457;53.590;9.922;2023-04-06T03:40:56;4.78;;;3.05;;
44728;SDS011;30457;53.590;9.922;2023-04-06T03:45:24;5.88;;;3.00;;
44728;SDS011;30457;53.590;9.922;2023-04-06T03:49:50;5.65;;;3.42;;
44728;SDS011;30457;53.590;9.922;2023-04-06T03:54:16;7.93;;;3.50;;
44728;SDS011;30457;53.590;9.922;2023-04-06T03:58:41;7.35;;;3.38;;
44728;SDS011;30457;53.590;9.922;2023-04-06T04:03:09;4.25;;;2.88;;
44728;SDS011;30457;53.590;9.922;2023-04-06T04:07:35;4.15;;;3.15;;
44728;SDS011;30457;53.590;9.922;2023-04-06T04:12:00;7.30;;;3.55;;
44728;SDS011;30457;53.590;9.922;2023-04-06T04:16:26;4.25;;;3.50;;
44728;SDS011;30457;53.590;9.922;2023-04-06T04:20:52;4.68;;;3.50;;
44728;SDS011;30457;53.590;9.922;2023-04-06T04:25:19;5.72;;;4.28;;
44728;SDS011;30457;53.590;9.922;2023-04-06T04:29:48;4.93;;;3.42;;
44728;SDS011;30457;53.590;9.922;2023-04-06T04:34:13;7.32;;;3.58;;
44728;SDS011;30457;53.590;9.922;2023-04-06T04:38:40;7.50;;;4.00;;
44728;SDS011;30457;53.590;9.922;2023-04-06T04:43:05;5.65;;;4.00;;
44728;SDS011;30457;53.590;9.922;2023-04-06T04:47:33;5.68;;;3.58;;
44728;SDS011;30457;53.590;9.922;2023-04-06T04:51:59;5.72;;;3.75;;
44728;SDS011;30457;53.590;9.922;2023-04-06T04:56:32;5.03;;;4.22;;
44728;SDS011;30457;53.590;9.922;2023-04-06T05:05:34;4.43;;;3.45;;
44728;SDS011;30457;53.590;9.922;2023-04-06T05:10:01;5.72;;;4.05;;
44728;SDS011;30457;53.590;9.922;2023-04-06T05:14:31;7.07;;;3.85;;
44728;SDS011;30457;53.590;9.922;2023-04-06T05:18:58;6.90;;;4.15;;
44728;SDS011;30457;53.590;9.922;2023-04-06T05:23:30;6.60;;;4.25;;
44728;SDS011;30457;53.590;9.922;2023-04-06T05:28:00;6.40;;;3.95;;
44728;SDS011;30457;53.590;9.922;2023-04-06T05:32:29;8.98;;;4.57;;
44728;SDS011;30457;53.590;9.922;2023-04-06T05:36:55;6.65;;;4.45;;
44728;SDS011;30457;53.590;9.922;2023-04-06T05:41:24;9.23;;;4.53;;
44728;SDS011;30457;53.590;9.922;2023-04-06T05:45:50;8.98;;;4.32;;
44728;SDS011;30457;53.590;9.922;2023-04-06T05:50:15;5.78;;;3.40;;
44728;SDS011;30457;53.590;9.922;2023-04-06T05:54:41;6.75;;;4.30;;
44728;SDS011;30457;53.590;9.922;2023-04-06T05:59:07;8.15;;;4.38;;
44728;SDS011;30457;53.590;9.922;2023-04-06T06:03:32;9.40;;;5.20;;
44728;SDS011;30457;53.590;9.922;2023-04-06T06:07:58;9.18;;;4.95;;
44728;SDS011;30457;53.590;9.922;2023-04-06T06:12:24;9.07;;;4.85;;
44728;SDS011;30457;53.590;9.922;2023-04-06T06:16:50;11.52;;;5.32;;
44728;SDS011;30457;53.590;9.922;2023-04-06T06:21:15;7.22;;;4.43;;
44728;SDS011;30457;53.590;9.922;2023-04-06T06:25:42;6.40;;;4.55;;
44728;SDS011;30457;53.590;9.922;2023-04-06T06:30:08;6.75;;;4.47;;
44728;SDS011;30457;53.590;9.922;2023-04-06T06:34:37;8.90;;;5.47;;
44728;SDS011;30457;53.590;9.922;2023-04-06T06:39:05;13.23;;;4.78;;
44728;SDS011;30457;53.590;9.922;2023-04-06T06:43:31;8.10;;;5.38;;
44728;SDS011;30457;53.590;9.922;2023-04-06T06:48:00;10.18;;;5.05;;
44728;SDS011;30457;53.590;9.922;2023-04-06T06:52:26;8.63;;;5.43;;
44728;SDS011;30457;53.590;9.922;2023-04-06T06:56:51;8.90;;;5.30;;
44728;SDS011;30457;53.590;9.922;2023-04-06T07:01:17;8.15;;;4.78;;
44728;SDS011;30457;53.590;9.922;2023-04-06T07:05:47;6.28;;;4.65;;
44728;SDS011;30457;53.590;9.922;2023-04-06T07:10:17;7.55;;;5.00;;
44728;SDS011;30457;53.590;9.922;2023-04-06T07:14:43;7.88;;;5.15;;
44728;SDS011;30457;53.590;9.922;2023-04-06T07:19:09;7.85;;;5.20;;
44728;SDS011;30457;53.590;9.922;2023-04-06T07:23:35;6.47;;;4.38;;
44728;SDS011;30457;53.590;9.922;2023-04-06T07:28:01;7.28;;;4.47;;
44728;SDS011;30457;53.590;9.922;2023-04-06T07:32:28;8.82;;;4.85;;
44728;SDS011;30457;53.590;9.922;2023-04-06T07:36:54;8.23;;;4.40;;
44728;SDS011;30457;53.590;9.922;2023-04-06T07:41:19;10.20;;;4.40;;
44728;SDS011;30457;53.590;9.922;2023-04-06T07:45:46;10.95;;;4.72;;
44728;SDS011;30457;53.590;9.922;2023-04-06T07:50:15;5.63;;;4.28;;
44728;SDS011;30457;53.590;9.922;2023-04-06T07:54:41;9.02;;;3.95;;
44728;SDS011;30457;53.590;9.922;2023-04-06T07:59:07;5.82;;;3.55;;
44728;SDS011;30457;53.590;9.922;2023-04-06T08:03:35;7.10;;;4.40;;
44728;SDS011;30457;53.590;9.922;2023-04-06T08:08:01;9.07;;;4.22;;
44728;SDS011;30457;53.590;9.922;2023-04-06T08:12:26;13.93;;;4.13;;
44728;SDS011;30457;53.590;9.922;2023-04-06T08:16:52;7.53;;;3.83;;
44728;SDS011;30457;53.590;9.922;2023-04-06T08:21:17;5.72;;;3.75;;
44728;SDS011;30457;53.590;9.922;2023-04-06T08:25:43;7.07;;;3.80;;
44728;SDS011;30457;53.590;9.922;2023-04-06T08:30:09;6.75;;;4.05;;
44728;SDS011;30457;53.590;9.922;2023-04-06T08:34:35;5.40;;;3.58;;
44728;SDS011;30457;53.590;9.922;2023-04-06T08:39:00;5.50;;;4.38;;
44728;SDS011;30457;53.590;9.922;2023-04-06T08:43:26;6.05;;;4.00;;
44728;SDS011;30457;53.590;9.922;2023-04-06T08:47:53;7.28;;;4.30;;
44728;SDS011;30457;53.590;9.922;2023-04-06T08:52:21;7.78;;;4.60;;
44728;SDS011;30457;53.590;9.922;2023-04-06T08:56:48;7.10;;;3.70;;
44728;SDS011;30457;53.590;9.922;2023-04-06T09:01:15;6.70;;;3.33;;
44728;SDS011;30457;53.590;9.922;2023-04-06T09:05:43;7.15;;;4.00;;
44728;SDS011;30457;53.590;9.922;2023-04-06T09:10:10;4.57;;;3.40;;
44728;SDS011;30457;53.590;9.922;2023-04-06T09:14:38;4.90;;;3.40;;
44728;SDS011;30457;53.590;9.922;2023-04-06T09:19:05;6.63;;;4.25;;
44728;SDS011;30457;53.590;9.922;2023-04-06T09:23:30;5.63;;;3.55;;
44728;SDS011;30457;53.590;9.922;2023-04-06T09:28:03;7.63;;;3.35;;
44728;SDS011;30457;53.590;9.922;2023-04-06T09:32:29;4.05;;;3.25;;
44728;SDS011;30457;53.590;9.922;2023-04-06T09:36:55;4.55;;;3.00;;
44728;SDS011;30457;53.590;9.922;2023-04-06T09:41:31;5.35;;;3.25;;
44728;SDS011;30457;53.590;9.922;2023-04-06T09:45:58;3.83;;;2.63;;
44728;SDS011;30457;53.590;9.922;2023-04-06T09:50:25;4.75;;;2.85;;
44728;SDS011;30457;53.590;9.922;2023-04-06T09:54:52;6.70;;;3.25;;
44728;SDS011;30457;53.590;9.922;2023-04-06T09:59:33;5.00;;;3.25;;
44728;SDS011;30457;53.590;9.922;2023-04-06T10:08:37;5.03;;;2.60;;
44728;SDS011;30457;53.590;9.922;2023-04-06T10:13:07;5.20;;;2.67;;
44728;SDS011;30457;53.590;9.922;2023-04-06T10:17:36;9.05;;;2.88;;
44728;SDS011;30457;53.590;9.922;2023-04-06T10:22:01;4.38;;;2.75;;
44728;SDS011;30457;53.590;9.922;2023-04-06T10:26:30;3.75;;;2.67;;
44728;SDS011;30457;53.590;9.922;2023-04-06T10:30:56;4.03;;;2.80;;
44728;SDS011;30457;53.590;9.922;2023-04-06T10:35:23;5.38;;;2.58;;
44728;SDS011;30457;53.590;9.922;2023-04-06T10:39:53;4.95;;;2.78;;
44728;SDS011;30457;53.590;9.922;2023-04-06T10:44:20;7.43;;;3.70;;
44728;SDS011;30457;53.590;9.922;2023-04-06T10:48:47;4.38;;;3.10;;
44728;SDS011;30457;53.590;9.922;2023-04-06T10:53:20;4.40;;;3.17;;
44728;SDS011;30457;53.590;9.922;2023-04-06T10:57:50;3.97;;;2.72;;
44728;SDS011;30457;53.590;9.922;2023-04-06T11:02:19;8.05;;;2.80;;
44728;SDS011;30457;53.590;9.922;2023-04-06T11:06:48;6.07;;;3.08;;
44728;SDS011;30457;53.590;9.922;2023-04-06T11:11:15;4.82;;;3.30;;
44728;SDS011;30457;53.590;9.922;2023-04-06T11:15:43;5.07;;;3.20;;
44728;SDS011;30457;53.590;9.922;2023-04-06T11:20:09;5.18;;;3.53;;
44728;SDS011;30457;53.590;9.922;2023-04-06T11:24:36;4.18;;;3.40;;
44728;SDS011;30457;53.590;9.922;2023-04-06T11:29:02;5.35;;;4.07;;
44728;SDS011;30457;53.590;9.922;2023-04-06T11:33:27;10.93;;;4.35;;
44728;SDS011;30457;53.590;9.922;2023-04-06T11:37:54;5.35;;;3.60;;
44728;SDS011;30457;53.590;9.922;2023-04-06T11:42:22;5.75;;;3.70;;
44728;SDS011;30457;53.590;9.922;2023-04-06T11:46:52;6.68;;;3.53;;
44728;SDS011;30457;53.590;9.922;2023-04-06T11:51:21;9.05;;;3.90;;
44728;SDS011;30457;53.590;9.922;2023-04-06T11:55:48;6.63;;;3.95;;
44728;SDS011;30457;53.590;9.922;2023-04-06T12:00:14;5.88;;;4.38;;
44728;SDS011;30457;53.590;9.922;2023-04-06T12:04:40;7.22;;;4.07;;
44728;SDS011;30457;53.590;9.922;2023-04-06T12:09:06;6.38;;;4.30;;
44728;SDS011;30457;53.590;9.922;2023-04-06T12:13:31;6.88;;;3.65;;
44728;SDS011;30457;53.590;9.922;2023-04-06T12:17:57;5.72;;;3.80;;
44728;SDS011;30457;53.590;9.922;2023-04-06T12:22:22;5.38;;;3.83;;
44728;SDS011;30457;53.590;9.922;2023-04-06T12:26:48;9.65;;;4.35;;
44728;SDS011;30457;53.590;9.922;2023-04-06T12:31:14;5.60;;;3.90;;
44728;SDS011;30457;53.590;9.922;2023-04-06T12:35:43;6.30;;;4.25;;
44728;SDS011;30457;53.590;9.922;2023-04-06T12:40:09;6.40;;;3.78;;
44728;SDS011;30457;53.590;9.922;2023-04-06T12:44:36;6.82;;;3.95;;
44728;SDS011;30457;53.590;9.922;2023-04-06T12:49:03;7.10;;;4.05;;
44728;SDS011;30457;53.590;9.922;2023-04-06T12:53:28;5.88;;;4.10;;
44728;SDS011;30457;53.590;9.922;2023-04-06T12:57:54;7.57;;;3.90;;
44728;SDS011;30457;53.590;9.922;2023-04-06T13:02:20;5.07;;;4.10;;
44728;SDS011;30457;53.590;9.922;2023-04-06T13:06:46;8.63;;;4.38;;
44728;SDS011;30457;53.590;9.922;2023-04-06T13:11:12;6.05;;;4.38;;
44728;SDS011;30457;53.590;9.922;2023-04-06T13:15:37;6.55;;;4.20;;
44728;SDS011;30457;53.590;9.922;2023-04-06T13:20:03;6.07;;;4.20;;
44728;SDS011;30457;53.590;9.922;2023-04-06T13:24:29;8.75;;;4.53;;
44728;SDS011;30457;53.590;9.922;2023-04-06T13:28:55;6.10;;;4.03;;
44728;SDS011;30457;53.590;9.922;2023-04-06T13:33:21;4.75;;;3.97;;
44728;SDS011;30457;53.590;9.922;2023-04-06T13:37:47;7.15;;;4.65;;
44728;SDS011;30457;53.590;9.922;2023-04-06T13:42:13;6.40;;;4.43;;
44728;SDS011;30457;53.590;9.922;2023-04-06T13:46:39;6.82;;;4.43;;
44728;SDS011;30457;53.590;9.922;2023-04-06T13:51:08;5.72;;;4.35;;
44728;SDS011;30457;53.590;9.922;2023-04-06T13:55:35;5.35;;;3.80;;
44728;SDS011;30457;53.590;9.922;2023-04-06T14:00:01;6.65;;;4.18;;
44728;SDS011;30457;53.590;9.922;2023-04-06T14:04:26;7.10;;;4.40;;
44728;SDS011;30457;53.590;9.922;2023-04-06T14:08:52;7.38;;;3.67;;
44728;SDS011;30457;53.590;9.922;2023-04-06T14:13:17;6.13;;;3.03;;
44728;SDS011;30457;53.590;9.922;2023-04-06T14:17:44;5.43;;;4.43;;
44728;SDS011;30457;53.590;9.922;2023-04-06T14:22:09;6.03;;;4.53;;
44728;SDS011;30457;53.590;9.922;2023-04-06T14:26:35;5.60;;;3.75;;
44728;SDS011;30457;53.590;9.922;2023-04-06T14:31:02;4.88;;;3.78;;
44728;SDS011;30457;53.590;9.922;2023-04-06T14:35:37;6.10;;;4.28;;
44728;SDS011;30457;53.590;9.922;2023-04-06T14:40:03;5.35;;;4.35;;
44728;SDS011;30457;53.590;9.922;2023-04-06T14:44:29;8.63;;;4.93;;
44728;SDS011;30457;53.590;9.922;2023-04-06T14:48:58;8.13;;;4.13;;
44728;SDS011;30457;53.590;9.922;2023-04-06T14:53:24;5.38;;;3.85;;
44728;SDS011;30457;53.590;9.922;2023-04-06T14:57:49;7.53;;;4.57;;
44728;SDS011;30457;53.590;9.922;2023-04-06T15:02:15;11.45;;;5.05;;
44728;SDS011;30457;53.590;9.922;2023-04-06T15:06:41;5.93;;;4.15;;
44728;SDS011;30457;53.590;9.922;2023-04-06T15:11:07;6.78;;;4.65;;
44728;SDS011;30457;53.590;9.922;2023-04-06T15:15:33;7.68;;;5.00;;
44728;SDS011;30457;53.590;9.922;2023-04-06T15:19:58;6.32;;;4.53;;
44728;SDS011;30457;53.590;9.922;2023-04-06T15:24:24;6.47;;;4.10;;
44728;SDS011;30457;53.590;9.922;2023-04-06T15:28:50;5.63;;;4.32;;
44728;SDS011;30457;53.590;9.922;2023-04-06T15:33:16;6.47;;;4.00;;
44728;SDS011;30457;53.590;9.922;2023-04-06T15:37:42;7.07;;;3.60;;
44728;SDS011;30457;53.590;9.922;2023-04-06T15:42:07;6.10;;;3.72;;
44728;SDS011;30457;53.590;9.922;2023-04-06T15:46:33;6.32;;;4.40;;
44728;SDS011;30457;53.590;9.922;2023-04-06T15:50:59;5.15;;;3.85;;
44728;SDS011;30457;53.590;9.922;2023-04-06T15:55:25;6.38;;;4.20;;
44728;SDS011;30457;53.590;9.922;2023-04-06T15:59:51;8.18;;;5.10;;
44728;SDS011;30457;53.590;9.922;2023-04-06T16:04:19;21.88;;;4.70;;
44728;SDS011;30457;53.590;9.922;2023-04-06T16:08:44;7.63;;;4.28;;
44728;SDS011;30457;53.590;9.922;2023-04-06T16:13:10;5.75;;;4.00;;
44728;SDS011;30457;53.590;9.922;2023-04-06T16:17:35;6.05;;;4.43;;
44728;SDS011;30457;53.590;9.922;2023-04-06T16:22:01;5.68;;;4.38;;
44728;SDS011;30457;53.590;9.922;2023-04-06T16:26:26;7.13;;;3.70;;
44728;SDS011;30457;53.590;9.922;2023-04-06T16:30:52;9.43;;;4.10;;
44728;SDS011;30457;53.590;9.922;2023-04-06T16:35:18;7.10;;;4.38;;
44728;SDS011;30457;53.590;9.922;2023-04-06T16:39:44;8.07;;;4.43;;
44728;SDS011;30457;53.590;9.922;2023-04-06T16:44:10;24.73;;;5.70;;
44728;SDS011;30457;53.590;9.922;2023-04-06T16:48:37;12.95;;;5.20;;
44728;SDS011;30457;53.590;9.922;2023-04-06T16:53:02;5.25;;;4.43;;
44728;SDS011;30457;53.590;9.922;2023-04-06T16:57:28;6.40;;;5.20;;
44728;SDS011;30457;53.590;9.922;2023-04-06T17:01:53;7.80;;;4.57;;
44728;SDS011;30457;53.590;9.922;2023-04-06T17:06:19;6.20;;;4.32;;
44728;SDS011;30457;53.590;9.922;2023-04-06T17:10:45;9.38;;;4.78;;
44728;SDS011;30457;53.590;9.922;2023-04-06T17:15:14;5.88;;;4.65;;
44728;SDS011;30457;53.590;9.922;2023-04-06T17:19:40;19.08;;;4.85;;
44728;SDS011;30457;53.590;9.922;2023-04-06T17:24:05;6.95;;;4.55;;
44728;SDS011;30457;53.590;9.922;2023-04-06T17:28:32;8.02;;;4.20;;
44728;SDS011;30457;53.590;9.922;2023-04-06T17:32:57;6.95;;;4.35;;
44728;SDS011;30457;53.590;9.922;2023-04-06T17:37:23;5.45;;;4.15;;
44728;SDS011;30457;53.590;9.922;2023-04-06T17:41:48;5.88;;;3.92;;
44728;SDS011;30457;53.590;9.922;2023-04-06T17:46:14;5.90;;;4.30;;
44728;SDS011;30457;53.590;9.922;2023-04-06T17:50:39;8.70;;;4.50;;
44728;SDS011;30457;53.590;9.922;2023-04-06T17:55:06;6.85;;;4.40;;
44728;SDS011;30457;53.590;9.922;2023-04-06T17:59:32;7.57;;;4.82;;
44728;SDS011;30457;53.590;9.922;2023-04-06T18:03:57;8.48;;;5.15;;
44728;SDS011;30457;53.590;9.922;2023-04-06T18:08:23;8.00;;;4.75;;
44728;SDS011;30457;53.590;9.922;2023-04-06T18:12:49;7.00;;;4.68;;
44728;SDS011;30457;53.590;9.922;2023-04-06T18:17:14;9.48;;;4.55;;
44728;SDS011;30457;53.590;9.922;2023-04-06T18:21:40;7.82;;;4.70;;
44728;SDS011;30457;53.590;9.922;2023-04-06T18:26:06;8.68;;;4.47;;
44728;SDS011;30457;53.590;9.922;2023-04-06T18:30:38;5.88;;;4.32;;
44728;SDS011;30457;53.590;9.922;2023-04-06T18:35:03;8.63;;;5.07;;
44728;SDS011;30457;53.590;9.922;2023-04-06T18:39:30;6.85;;;4.15;;
44728;SDS011;30457;53.590;9.922;2023-04-06T18:43:56;7.38;;;4.10;;
44728;SDS011;30457;53.590;9.922;2023-04-06T18:48:21;5.90;;;4.38;;
44728;SDS011;30457;53.590;9.922;2023-04-06T18:52:47;5.70;;;4.43;;
44728;SDS011;30457;53.590;9.922;2023-04-06T18:57:13;8.90;;;5.00;;
44728;SDS011;30457;53.590;9.922;2023-04-06T19:01:38;9.10;;;5.22;;
44728;SDS011;30457;53.590;9.922;2023-04-06T19:06:07;9.88;;;5.68;;
44728;SDS011;30457;53.590;9.922;2023-04-06T19:10:33;6.68;;;4.97;;
44728;SDS011;30457;53.590;9.922;2023-04-06T19:15:04;10.23;;;6.13;;
44728;SDS011;30457;53.590;9.922;2023-04-06T19:19:31;10.50;;;6.65;;
44728;SDS011;30457;53.590;9.922;2023-04-06T19:23:56;10.82;;;6.50;;
44728;SDS011;30457;53.590;9.922;2023-04-06T19:28:22;10.60;;;6.60;;
44728;SDS011;30457;53.590;9.922;2023-04-06T19:32:47;11.05;;;6.63;;
44728;SDS011;30457;53.590;9.922;2023-04-06T19:37:13;10.98;;;6.28;;
44728;SDS011;30457;53.590;9.922;2023-04-06T19:41:39;9.32;;;6.35;;
44728;SDS011;30457;53.590;9.922;2023-04-06T19:46:04;11.48;;;6.15;;
44728;SDS011;30457;53.590;9.922;2023-04-06T19:50:30;13.57;;;6.65;;
44728;SDS011;30457;53.590;9.922;2023-04-06T19:54:56;10.50;;;7.05;;
44728;SDS011;30457;53.590;9.922;2023-04-06T19:59:22;14.65;;;7.90;;
44728;SDS011;30457;53.590;9.922;2023-04-06T20:03:47;16.25;;;8.60;;
44728;SDS011;30457;53.590;9.922;2023-04-06T20:08:13;14.20;;;9.07;;
44728;SDS011;30457;53.590;9.922;2023-04-06T20:12:40;16.67;;;9.77;;
44728;SDS011;30457;53.590;9.922;2023-04-06T20:17:06;14.82;;;9.77;;
44728;SDS011;30457;53.590;9.922;2023-04-06T20:21:31;14.93;;;8.55;;
44728;SDS011;30457;53.590;9.922;2023-04-06T20:25:57;14.30;;;8.75;;
44728;SDS011;30457;53.590;9.922;2023-04-06T20:30:23;14.35;;;7.72;;
44728;SDS011;30457;53.590;9.922;2023-04-06T20:34:49;13.25;;;8.25;;
44728;SDS011;30457;53.590;9.922;2023-04-06T20:39:15;13.43;;;7.80;;
44728;SDS011;30457;53.590;9.922;2023-04-06T20:43:40;11.43;;;7.05;;
44728;SDS011;30457;53.590;9.922;2023-04-06T20:48:06;11.65;;;6.57;;
44728;SDS011;30457;53.590;9.922;2023-04-06T20:52:31;10.90;;;6.82;;
44728;SDS011;30457;53.590;9.922;2023-04-06T20:56:58;11.60;;;7.60;;
44728;SDS011;30457;53.590;9.922;2023-04-06T21:01:24;11.10;;;6.68;;
44728;SDS011;30457;53.590;9.922;2023-04-06T21:05:50;9.30;;;6.40;;
44728;SDS011;30457;53.590;9.922;2023-04-06T21:10:18;11.82;;;6.45;;
44728;SDS011;30457;53.590;9.922;2023-04-06T21:14:44;12.73;;;7.22;;
44728;SDS011;30457;53.590;9.922;2023-04-06T21:19:09;10.48;;;6.78;;
44728;SDS011;30457;53.590;9.922;2023-04-06T21:23:35;10.90;;;6.82;;
44728;SDS011;30457;53.590;9.922;2023-04-06T21:28:01;11.57;;;6.50;;
44728;SDS011;30457;53.590;9.922;2023-04-06T21:32:26;12.13;;;6.85;;
44728;SDS011;30457;53.590;9.922;2023-04-06T21:36:52;10.88;;;6.68;;
44728;SDS011;30457;53.590;9.922;2023-04-06T21:41:17;11.30;;;7.20;;
44728;SDS011;30457;53.590;9.922;2023-04-06T21:45:47;10.95;;;6.57;;
44728;SDS011;30457;53.590;9.922;2023-04-06T21:50:13;10.68;;;6.90;;
44728;SDS011;30457;53.590;9.922;2023-04-06T21:54:40;10.52;;;6.05;;
44728;SDS011;30457;53.590;9.922;2023-04-06T21:59:05;10.43;;;6.32;;
44728;SDS011;30457;53.590;9.922;2023-04-06T22:03:31;11.80;;;7.07;;
44728;SDS011;30457;53.590;9.922;2023-04-06T22:07:56;10.13;;;6.60;;
44728;SDS011;30457;53.590;9.922;2023-04-06T22:12:23;12.85;;;7.15;;
44728;SDS011;30457;53.590;9.922;2023-04-06T22:16:49;13.43;;;8.13;;
44728;SDS011;30457;53.590;9.922;2023-04-06T22:21:14;12.23;;;6.93;;
44728;SDS011;30457;53.590;9.922;2023-04-06T22:25:40;11.38;;;7.05;;
44728;SDS011;30457;53.590;9.922;2023-04-06T22:30:05;11.95;;;7.53;;
44728;SDS011;30457;53.590;9.922;2023-04-06T22:34:32;11.68;;;7.05;;
44728;SDS011;30457;53.590;9.922;2023-04-06T22:38:57;11.70;;;7.45;;
44728;SDS011;30457;53.590;9.922;2023-04-06T22:43:23;12.40;;;6.93;;
44728;SDS011;30457;53.590;9.922;2023-04-06T22:47:48;14.77;;;7.53;;
44728;SDS011;30457;53.590;9.922;2023-04-06T22:52:14;12.30;;;7.88;;
44728;SDS011;30457;53.590;9.922;2023-04-06T22:56:39;10.70;;;7.65;;
44728;SDS011;30457;53.590;9.922;2023-04-06T23:01:05;14.05;;;7.75;;
44728;SDS011;30457;53.590;9.922;2023-04-06T23:05:31;13.68;;;6.75;;
44728;SDS011;30457;53.590;9.922;2023-04-06T23:09:57;12.75;;;7.47;;
44728;SDS011;30457;53.590;9.922;2023-04-06T23:14:23;10.20;;;6.57;;
44728;SDS011;30457;53.590;9.922;2023-04-06T23:18:49;11.35;;;7.35;;
44728;SDS011;30457;53.590;9.922;2023-04-06T23:23:14;10.40;;;6.40;;
44728;SDS011;30457;53.590;9.922;2023-04-06T23:27:40;10.40;;;6.68;;
44728;SDS011;30457;53.590;9.922;2023-04-06T23:32:06;9.75;;;6.45;;
44728;SDS011;30457;53.590;9.922;2023-04-06T23:36:31;10.65;;;6.03;;
44728;SDS011;30457;53.590;9.922;2023-04-06T23:40:57;11.00;;;6.53;;
44728;SDS011;30457;53.590;9.922;2023-04-06T23:45:22;14.38;;;7.43;;
44728;SDS011;30457;53.590;9.922;2023-04-06T23:49:48;10.25;;;6.45;;
44728;SDS011;30457;53.590;9.922;2023-04-06T23:54:13;8.00;;;5.45;;
44728;SDS011;30457;53.590;9.922;2023-04-06T23:58:39;9.93;;;6.55;;
